Time;durP1;ratioP1;P1;durP2;ratioP2;P2;SDS_P1;SDS_P2;PMS_P1;PMS_P2;Temp;Humidity;BMP_temperature;BMP_pressure;BME280_temperature;BME280_humidity;BME280_pressure;Samples;Min_cycle;Max_cycle;Signal;HPM_P1;HPM_P2
2022/05/15 00:02:25;;;;;;;37.00;9.07;;;;;;;;;;5077377;28;20063;-65
2022/05/15 00:04:51;;;;;;;34.97;10.68;;;;;;;;;;5074032;28;20176;-65
2022/05/15 00:07:17;;;;;;;37.47;9.68;;;;;;;;;;5088959;28;20048;-65
2022/05/15 00:09:43;;;;;;;37.80;9.75;;;;;;;;;;5084957;28;20449;-65
2022/05/15 00:12:09;;;;;;;39.97;9.95;;;;;;;;;;5107557;28;20044;-66
2022/05/15 00:14:35;;;;;;;;;;;;;;;;;;5103083;28;20070;-65
2022/05/15 00:17:01;;;;;;;41.38;9.60;;;;;;;;;;5072480;28;20266;-66
2022/05/15 00:19:28;;;;;;;37.03;10.57;;;;;;;;;;5068320;28;20453;-66
2022/05/15 00:21:54;;;;;;;;;;;;;;;;;;5082517;28;20052;-65
2022/05/15 00:24:20;;;;;;;31.25;9.25;;;;;;;;;;5088439;28;19920;-65
2022/05/15 00:26:46;;;;;;;33.55;10.48;;;;;;;;;;5079185;28;20062;-65
2022/05/15 00:29:12;;;;;;;33.15;10.80;;;;;;;;;;5068487;28;20056;-66
2022/05/15 00:31:39;;;;;;;39.33;10.65;;;;;;;;;;5084834;28;20043;-65
2022/05/15 00:34:05;;;;;;;47.20;10.93;;;;;;;;;;5107519;28;20039;-65
2022/05/15 00:36:31;;;;;;;37.53;10.75;;;;;;;;;;5096762;28;20080;-65
2022/05/15 00:38:58;;;;;;;35.15;10.73;;;;;;;;;;5080500;28;20048;-66
2022/05/15 00:41:25;;;;;;;45.42;11.45;;;;;;;;;;5085419;28;20075;-65
2022/05/15 00:43:52;;;;;;;34.33;10.65;;;;;;;;;;5088676;28;20048;-66
2022/05/15 00:46:20;;;;;;;41.55;11.02;;;;;;;;;;5087253;28;20124;-66
2022/05/15 00:48:47;;;;;;;34.80;10.55;;;;;;;;;;5075696;28;20045;-66
2022/05/15 00:51:18;;;;;;;42.88;10.90;;;;;;;;;;5074099;28;20047;-67
2022/05/15 00:53:47;;;;;;;40.83;10.43;;;;;;;;;;5086790;28;20055;-66
2022/05/15 00:56:16;;;;;;;42.85;9.88;;;;;;;;;;5088694;28;20131;-67
2022/05/15 00:58:47;;;;;;;38.97;10.48;;;;;;;;;;5067877;28;20049;-65
2022/05/15 01:01:14;;;;;;;33.70;10.65;;;;;;;;;;5050940;28;20059;-65
2022/05/15 01:03:42;;;;;;;31.55;9.48;;;;;;;;;;5081721;28;20441;-66
2022/05/15 01:06:08;;;;;;;46.33;10.68;;;;;;;;;;5059179;28;20228;-66
2022/05/15 01:08:35;;;;;;;29.27;8.68;;;;;;;;;;5084533;28;20063;-65
2022/05/15 01:11:05;;;;;;;31.33;10.27;;;;;;;;;;5068450;28;20120;-65
2022/05/15 01:13:34;;;;;;;40.20;10.85;;;;;;;;;;5093821;28;20455;-66
2022/05/15 01:16:00;;;;;;;39.72;9.90;;;;;;;;;;5090729;28;20127;-66
2022/05/15 01:18:28;;;;;;;39.33;9.73;;;;;;;;;;5100765;28;20044;-66
2022/05/15 01:20:58;;;;;;;35.80;10.20;;;;;;;;;;5091796;28;20124;-66
2022/05/15 01:23:24;;;;;;;36.30;10.38;;;;;;;;;;5067143;28;20362;-66
2022/05/15 01:25:51;;;;;;;34.85;9.82;;;;;;;;;;5090573;28;20047;-66
2022/05/15 01:28:16;;;;;;;;;;;;;;;;;;5099262;28;20045;-65
2022/05/15 01:30:45;;;;;;;36.10;10.68;;;;;;;;;;5108475;28;19978;-66
2022/05/15 01:33:11;;;;;;;36.45;9.68;;;;;;;;;;5100575;28;20107;-66
2022/05/15 01:35:37;;;;;;;32.72;9.25;;;;;;;;;;5088248;28;20044;-65
2022/05/15 01:38:04;;;;;;;;;;;;;;;;;;5087102;28;20436;-66
2022/05/15 01:40:30;;;;;;;30.58;9.65;;;;;;;;;;5108409;28;19930;-65
2022/05/15 01:42:56;;;;;;;40.60;11.15;;;;;;;;;;5090126;28;20149;-67
2022/05/15 01:45:22;;;;;;;29.23;9.27;;;;;;;;;;5053530;28;20075;-66
2022/05/15 01:47:49;;;;;;;39.00;10.45;;;;;;;;;;5071332;28;20153;-66
2022/05/15 01:50:15;;;;;;;33.28;10.75;;;;;;;;;;5107348;28;20048;-66
2022/05/15 01:52:42;;;;;;;33.05;10.25;;;;;;;;;;5111060;28;20039;-66
2022/05/15 01:55:08;;;;;;;33.45;10.25;;;;;;;;;;5082779;28;20506;-65
2022/05/15 01:57:34;;;;;;;;;;;;;;;;;;5086078;28;20063;-66
2022/05/15 02:00:00;;;;;;;39.55;12.63;;;;;;;;;;5094278;28;19920;-66
2022/05/15 02:02:26;;;;;;;40.17;11.73;;;;;;;;;;5102090;28;20101;-65
2022/05/15 02:04:52;;;;;;;;;;;;;;;;;;5082047;28;20487;-66
2022/05/15 02:07:18;;;;;;;35.00;11.52;;;;;;;;;;5071739;28;19971;-66
2022/05/15 02:09:45;;;;;;;39.60;10.50;;;;;;;;;;5089028;28;20050;-65
2022/05/15 02:12:11;;;;;;;36.58;10.95;;;;;;;;;;5112204;28;20440;-65
2022/05/15 02:14:37;;;;;;;37.67;10.70;;;;;;;;;;5081336;28;20542;-65
2022/05/15 02:17:03;;;;;;;36.22;10.65;;;;;;;;;;5073893;28;20049;-65
2022/05/15 02:19:29;;;;;;;33.88;10.55;;;;;;;;;;5070072;28;20098;-66
2022/05/15 02:21:55;;;;;;;33.88;9.98;;;;;;;;;;5070870;28;20075;-65
2022/05/15 02:24:21;;;;;;;39.90;10.57;;;;;;;;;;5073414;28;20589;-65
2022/05/15 02:26:47;;;;;;;39.35;10.52;;;;;;;;;;5089940;28;20048;-65
2022/05/15 02:29:14;;;;;;;39.80;10.07;;;;;;;;;;5070095;28;20040;-65
2022/05/15 02:31:40;;;;;;;35.60;10.07;;;;;;;;;;5070212;28;20049;-66
2022/05/15 02:34:06;;;;;;;44.88;10.25;;;;;;;;;;5052963;28;20400;-66
2022/05/15 02:36:32;;;;;;;;;;;;;;;;;;5083501;28;20037;-65
2022/05/15 02:38:58;;;;;;;38.90;10.07;;;;;;;;;;5070414;28;19927;-66
2022/05/15 02:41:24;;;;;;;32.80;8.80;;;;;;;;;;5085521;28;20087;-65
2022/05/15 02:43:50;;;;;;;36.08;10.10;;;;;;;;;;5090536;28;20132;-65
2022/05/15 02:46:16;;;;;;;36.20;9.50;;;;;;;;;;5061109;28;20436;-65
2022/05/15 02:51:28;;;;;;;38.25;10.07;;;;;;;;;;5083024;28;20131;-65
2022/05/15 02:53:54;;;;;;;;;;;;;;;;;;5081816;28;20062;-66
2022/05/15 02:56:24;;;;;;;38.92;11.32;;;;;;;;;;5081347;28;19931;-65
2022/05/15 02:58:51;;;;;;;33.55;9.48;;;;;;;;;;5077368;28;20040;-66
2022/05/15 03:01:17;;;;;;;42.08;10.25;;;;;;;;;;5090251;28;20070;-66
2022/05/15 03:03:43;;;;;;;;;;;;;;;;;;5097161;28;20048;-65
2022/05/15 03:06:10;;;;;;;30.50;8.95;;;;;;;;;;5075718;28;20263;-66
2022/05/15 03:08:37;;;;;;;37.65;9.75;;;;;;;;;;5085173;28;20052;-66
2022/05/15 03:11:03;;;;;;;35.97;9.60;;;;;;;;;;5089614;28;20071;-66
2022/05/15 03:13:30;;;;;;;36.85;10.00;;;;;;;;;;5110620;28;20521;-66
2022/05/15 03:15:56;;;;;;;37.20;10.90;;;;;;;;;;5102651;28;20054;-66
2022/05/15 03:18:22;;;;;;;39.10;9.95;;;;;;;;;;5090439;28;20102;-66
2022/05/15 03:20:48;;;;;;;34.20;9.52;;;;;;;;;;5080941;28;20415;-66
2022/05/15 03:23:14;;;;;;;40.58;10.48;;;;;;;;;;5097386;28;20031;-66
2022/05/15 03:25:41;;;;;;;37.42;9.85;;;;;;;;;;5053172;28;20310;-66
2022/05/15 03:28:09;;;;;;;33.15;9.60;;;;;;;;;;5105571;28;20169;-65
2022/05/15 03:30:36;;;;;;;33.50;9.48;;;;;;;;;;5093114;28;20101;-65
2022/05/15 03:33:02;;;;;;;33.33;8.90;;;;;;;;;;5086804;28;20621;-65
2022/05/15 03:35:28;;;;;;;;;;;;;;;;;;5069889;28;20147;-66
2022/05/15 03:37:54;;;;;;;33.50;9.10;;;;;;;;;;5075839;28;20344;-67
2022/05/15 03:40:21;;;;;;;35.65;9.68;;;;;;;;;;5069057;28;20412;-65
2022/05/15 03:42:47;;;;;;;;;;;;;;;;;;5085567;28;20042;-65
2022/05/15 03:45:13;;;;;;;35.08;10.20;;;;;;;;;;5103360;28;19920;-66
2022/05/15 03:47:46;;;;;;;27.52;8.60;;;;;;;;;;5076517;28;20047;-66
2022/05/15 03:50:12;;;;;;;35.85;9.95;;;;;;;;;;5099635;28;20514;-66
2022/05/15 03:52:38;;;;;;;37.28;10.60;;;;;;;;;;5080677;28;20036;-66
2022/05/15 03:55:04;;;;;;;39.83;9.85;;;;;;;;;;5107864;28;20137;-66
2022/05/15 03:57:30;;;;;;;32.50;9.57;;;;;;;;;;5078907;28;20123;-66
2022/05/15 03:59:56;;;;;;;31.10;9.15;;;;;;;;;;5066673;28;20472;-65
2022/05/15 04:02:23;;;;;;;34.85;10.65;;;;;;;;;;5068762;28;20139;-66
2022/05/15 04:04:49;;;;;;;36.33;10.93;;;;;;;;;;5072739;28;20071;-66
2022/05/15 04:07:15;;;;;;;39.50;10.02;;;;;;;;;;5067569;28;20044;-65
2022/05/15 04:09:41;;;;;;;38.63;10.55;;;;;;;;;;5067673;28;20189;-66
2022/05/15 04:12:10;;;;;;;32.38;9.75;;;;;;;;;;5067197;28;20074;-65
2022/05/15 04:14:38;;;;;;;32.75;9.57;;;;;;;;;;5067199;28;20119;-67
2022/05/15 04:17:04;;;;;;;36.05;8.88;;;;;;;;;;5080880;28;20496;-66
2022/05/15 04:19:30;;;;;;;34.85;9.77;;;;;;;;;;5097396;28;20044;-67
2022/05/15 04:22:02;;;;;;;34.40;10.00;;;;;;;;;;5095591;28;20048;-66
2022/05/15 04:24:28;;;;;;;36.75;8.77;;;;;;;;;;5089264;28;20452;-66
2022/05/15 04:26:54;;;;;;;;;;;;;;;;;;5107262;28;20135;-67
2022/05/15 04:29:21;;;;;;;34.33;9.05;;;;;;;;;;5085445;28;20003;-66
2022/05/15 04:31:47;;;;;;;;;;;;;;;;;;5091445;28;20562;-66
2022/05/15 04:34:13;;;;;;;28.88;9.10;;;;;;;;;;5075298;28;20014;-66
2022/05/15 04:36:39;;;;;;;31.05;9.05;;;;;;;;;;5107589;28;20126;-67
2022/05/15 04:39:05;;;;;;;;;;;;;;;;;;5092224;28;20112;-66
2022/05/15 04:41:31;;;;;;;41.47;10.63;;;;;;;;;;5076499;28;19924;-67
2022/05/15 04:43:57;;;;;;;34.67;10.77;;;;;;;;;;5090104;28;20112;-66
2022/05/15 04:46:25;;;;;;;31.63;9.38;;;;;;;;;;5067529;28;20507;-66
2022/05/15 04:48:52;;;;;;;32.42;9.27;;;;;;;;;;5083158;28;20146;-66
2022/05/15 04:51:18;;;;;;;40.30;9.82;;;;;;;;;;5086794;28;20390;-67
2022/05/15 04:53:44;;;;;;;32.78;9.25;;;;;;;;;;5097218;28;20441;-66
2022/05/15 04:56:10;;;;;;;37.63;10.27;;;;;;;;;;5059619;28;20407;-66
2022/05/15 04:58:36;;;;;;;34.92;10.25;;;;;;;;;;5080193;28;20067;-66
2022/05/15 05:01:02;;;;;;;33.03;9.18;;;;;;;;;;5069333;28;20055;-67
2022/05/15 05:03:28;;;;;;;35.63;9.90;;;;;;;;;;5095661;28;20056;-68
2022/05/15 05:05:55;;;;;;;34.92;8.77;;;;;;;;;;5066813;28;20404;-67
2022/05/15 05:08:21;;;;;;;35.65;10.88;;;;;;;;;;5065800;28;20062;-67
2022/05/15 05:10:47;;;;;;;28.65;9.48;;;;;;;;;;5081656;28;20044;-67
2022/05/15 05:13:13;;;;;;;33.50;9.13;;;;;;;;;;5079100;28;20043;-66
2022/05/15 05:15:39;;;;;;;;;;;;;;;;;;5083521;28;20138;-67
2022/05/15 05:18:05;;;;;;;32.75;8.98;;;;;;;;;;5097150;28;20006;-66
2022/05/15 05:20:31;;;;;;;37.50;9.85;;;;;;;;;;5081480;28;20110;-66
2022/05/15 05:22:57;;;;;;;36.03;9.52;;;;;;;;;;5081819;28;20156;-66
2022/05/15 05:25:23;;;;;;;33.88;9.60;;;;;;;;;;5104281;28;20051;-66
2022/05/15 05:27:49;;;;;;;33.30;9.23;;;;;;;;;;5084236;28;20075;-67
2022/05/15 05:30:20;;;;;;;32.75;8.38;;;;;;;;;;5096612;28;20043;-67
2022/05/15 05:32:46;;;;;;;29.15;7.95;;;;;;;;;;5086973;28;20169;-66
2022/05/15 05:35:15;;;;;;;34.53;8.27;;;;;;;;;;5108390;28;20047;-66
2022/05/15 05:37:41;;;;;;;27.83;7.65;;;;;;;;;;5071413;28;20041;-67
2022/05/15 05:40:07;;;;;;;30.10;8.52;;;;;;;;;;5088249;28;20137;-67
2022/05/15 05:42:33;;;;;;;31.75;7.93;;;;;;;;;;5074141;28;20109;-66
2022/05/15 05:45:02;;;;;;;30.42;9.02;;;;;;;;;;5059231;28;20160;-66
2022/05/15 05:47:29;;;;;;;31.02;8.27;;;;;;;;;;5069158;28;20053;-67
2022/05/15 05:49:55;;;;;;;27.17;8.57;;;;;;;;;;5101930;28;20071;-67
2022/05/15 05:52:23;;;;;;;24.95;7.82;;;;;;;;;;5074416;28;20511;-69
2022/05/15 05:54:49;;;;;;;33.80;8.65;;;;;;;;;;5070270;28;20300;-67
2022/05/15 05:57:15;;;;;;;25.98;7.97;;;;;;;;;;5105696;28;20073;-66
2022/05/15 05:59:41;;;;;;;32.00;8.77;;;;;;;;;;5070902;28;20045;-67
2022/05/15 06:02:07;;;;;;;35.65;9.48;;;;;;;;;;5082518;28;20068;-66
2022/05/15 06:04:40;;;;;;;33.65;8.32;;;;;;;;;;5086460;28;20048;-67
2022/05/15 06:07:11;;;;;;;33.20;8.85;;;;;;;;;;5096787;28;20066;-66
2022/05/15 06:09:38;;;;;;;32.13;9.02;;;;;;;;;;5107691;28;20160;-67
2022/05/15 06:12:05;;;;;;;32.72;7.65;;;;;;;;;;5076362;28;20055;-66
2022/05/15 06:14:31;;;;;;;31.48;8.35;;;;;;;;;;5070471;28;20123;-67
2022/05/15 06:16:57;;;;;;;25.13;7.57;;;;;;;;;;5096019;28;20047;-67
2022/05/15 06:19:23;;;;;;;33.83;7.63;;;;;;;;;;5081705;28;20456;-67
2022/05/15 06:21:50;;;;;;;25.55;7.88;;;;;;;;;;5089639;28;20135;-69
2022/05/15 06:24:16;;;;;;;28.23;7.95;;;;;;;;;;5069266;28;20044;-67
2022/05/15 06:26:42;;;;;;;30.13;7.72;;;;;;;;;;5080058;28;20044;-68
2022/05/15 06:29:08;;;;;;;37.83;8.60;;;;;;;;;;5080365;28;20414;-67
2022/05/15 06:31:34;;;;;;;29.10;7.70;;;;;;;;;;5068122;28;20075;-67
2022/05/15 06:34:00;;;;;;;26.40;7.95;;;;;;;;;;5070132;28;20048;-67
2022/05/15 06:36:26;;;;;;;35.65;8.18;;;;;;;;;;5073550;28;20762;-67
2022/05/15 06:38:52;;;;;;;25.15;7.43;;;;;;;;;;5070657;28;20040;-67
2022/05/15 06:41:18;;;;;;;26.50;7.47;;;;;;;;;;5086306;28;20044;-67
2022/05/15 06:43:44;;;;;;;31.25;8.57;;;;;;;;;;5087856;28;20350;-67
2022/05/15 06:46:10;;;;;;;30.63;7.18;;;;;;;;;;5074819;28;20310;-68
2022/05/15 06:48:38;;;;;;;27.63;7.97;;;;;;;;;;5088749;28;20047;-67
2022/05/15 06:51:05;;;;;;;26.52;7.38;;;;;;;;;;5066806;28;20040;-68
2022/05/15 06:53:31;;;;;;;39.17;8.13;;;;;;;;;;5091480;28;20052;-69
2022/05/15 06:58:42;;;;;;;28.80;7.63;;;;;;;;;;5089345;28;20342;-68
2022/05/15 07:01:08;;;;;;;22.60;6.28;;;;;;;;;;5082440;28;20067;-69
2022/05/15 07:03:34;;;;;;;24.70;6.68;;;;;;;;;;5074487;28;20484;-67
2022/05/15 07:06:01;;;;;;;31.45;7.13;;;;;;;;;;5073337;28;20056;-67
2022/05/15 07:08:27;;;;;;;26.30;6.68;;;;;;;;;;5093529;28;20044;-66
2022/05/15 07:10:54;;;;;;;35.78;7.95;;;;;;;;;;5105618;28;20108;-66
2022/05/15 07:13:20;;;;;;;;;;;;;;;;;;5059793;28;20325;-67
2022/05/15 07:15:46;;;;;;;30.42;6.28;;;;;;;;;;5105638;28;20289;-67
2022/05/15 07:18:12;;;;;;;27.25;6.65;;;;;;;;;;5071148;28;20114;-67
2022/05/15 07:20:38;;;;;;;28.50;6.53;;;;;;;;;;5083219;28;20120;-68
2022/05/15 07:23:04;;;;;;;27.50;6.57;;;;;;;;;;5085610;28;20214;-67
2022/05/15 07:25:30;;;;;;;;;;;;;;;;;;5086205;28;20352;-68
2022/05/15 07:27:56;;;;;;;28.38;6.55;;;;;;;;;;5088614;28;20049;-67
2022/05/15 07:30:22;;;;;;;27.73;6.47;;;;;;;;;;5078515;28;20126;-67
2022/05/15 07:32:48;;;;;;;26.90;6.45;;;;;;;;;;5077978;28;20078;-69
2022/05/15 07:35:15;;;;;;;28.48;6.57;;;;;;;;;;5067874;28;20044;-67
2022/05/15 07:37:41;;;;;;;27.35;5.97;;;;;;;;;;5082486;28;20063;-68
2022/05/15 07:40:07;;;;;;;28.92;7.72;;;;;;;;;;5087484;28;20124;-69
2022/05/15 07:42:33;;;;;;;;;;;;;;;;;;5084682;28;20051;-68
2022/05/15 07:44:59;;;;;;;31.65;6.80;;;;;;;;;;5086740;28;20556;-69
2022/05/15 07:47:26;;;;;;;35.47;6.97;;;;;;;;;;5084353;28;20422;-68
2022/05/15 07:49:52;;;;;;;;;;;;;;;;;;5086393;28;20043;-68
2022/05/15 07:52:18;;;;;;;25.23;6.40;;;;;;;;;;5083887;28;19920;-66
2022/05/15 07:54:44;;;;;;;;;;;;;;;;;;5084871;28;20052;-67
2022/05/15 07:57:11;;;;;;;29.52;6.18;;;;;;;;;;5085676;28;19930;-69
2022/05/15 07:59:37;;;;;;;23.30;5.43;;;;;;;;;;5083815;28;20403;-70
2022/05/15 08:02:06;;;;;;;24.20;6.65;;;;;;;;;;5074231;28;20139;-69
2022/05/15 08:08:00;;;;;;;29.58;7.07;;;;;;;;;;5068026;28;20352;-69
2022/05/15 08:10:04;;;;;;;29.73;5.38;;;;;;;;;;5067806;28;20080;-70
2022/05/15 08:12:30;;;;;;;24.75;5.28;;;;;;;;;;5067564;28;20124;-70
2022/05/15 08:14:56;;;;;;;25.80;5.35;;;;;;;;;;5086971;28;20040;-70
2022/05/15 08:17:22;;;;;;;23.98;5.53;;;;;;;;;;5085021;28;20130;-69
2022/05/15 08:25:20;;;;;;;22.23;5.30;;;;;;;;;;5076885;28;20090;-70
2022/05/15 08:27:46;;;;;;;;;;;;;;;;;;5067964;28;20082;-69
2022/05/15 08:30:15;;;;;;;22.25;5.25;;;;;;;;;;5087035;28;19958;-74
2022/05/15 08:32:41;;;;;;;25.58;6.35;;;;;;;;;;5084624;28;20097;-71
2022/05/15 08:35:07;;;;;;;;;;;;;;;;;;5084205;28;20090;-69
2022/05/15 08:37:33;;;;;;;29.13;5.28;;;;;;;;;;5065530;28;19967;-71
2022/05/15 08:39:59;;;;;;;22.83;4.95;;;;;;;;;;5066479;28;20120;-71
2022/05/15 08:42:39;;;;;;;21.85;5.57;;;;;;;;;;5097432;28;20051;-69
2022/05/15 08:45:09;;;;;;;29.15;6.25;;;;;;;;;;5090770;28;20090;-72
2022/05/15 08:47:40;;;;;;;20.65;5.65;;;;;;;;;;5089333;28;20093;-69
2022/05/15 08:50:16;;;;;;;20.92;5.30;;;;;;;;;;5082494;28;20048;-73
2022/05/15 08:52:46;;;;;;;23.38;5.72;;;;;;;;;;5086098;28;20412;-74
2022/05/15 08:55:19;;;;;;;24.02;5.22;;;;;;;;;;5082934;28;20088;-74
2022/05/15 08:58:00;;;;;;;21.45;5.03;;;;;;;;;;5098783;28;20058;-72
2022/05/15 09:00:31;;;;;;;22.70;6.03;;;;;;;;;;5073820;28;20041;-76
2022/05/15 09:03:04;;;;;;;24.15;4.82;;;;;;;;;;5096688;28;20143;-77
2022/05/15 09:05:32;;;;;;;29.40;6.00;;;;;;;;;;5076210;28;21517;-71
2022/05/15 09:08:04;;;;;;;24.08;5.35;;;;;;;;;;5071257;28;20457;-72
2022/05/15 09:10:34;;;;;;;20.70;5.80;;;;;;;;;;5081561;28;20434;-68
2022/05/15 09:13:01;;;;;;;21.67;4.88;;;;;;;;;;5085605;28;20139;-71
2022/05/15 09:15:29;;;;;;;20.05;5.05;;;;;;;;;;5080494;28;20058;-70
2022/05/15 09:18:02;;;;;;;23.98;4.97;;;;;;;;;;5074607;28;20472;-68
2022/05/15 09:20:28;;;;;;;22.13;5.32;;;;;;;;;;5073760;28;20121;-70
2022/05/15 09:23:01;;;;;;;16.25;4.88;;;;;;;;;;5086536;28;20503;-70
2022/05/15 09:25:33;;;;;;;24.92;5.00;;;;;;;;;;5087218;28;20044;-71
2022/05/15 09:28:02;;;;;;;21.02;5.07;;;;;;;;;;5086200;28;20044;-68
2022/05/15 09:30:33;;;;;;;20.95;5.25;;;;;;;;;;5066085;28;20158;-69
2022/05/15 09:32:59;;;;;;;15.05;4.50;;;;;;;;;;5067073;28;20044;-70
2022/05/15 09:35:25;;;;;;;27.77;4.70;;;;;;;;;;5066918;28;20057;-71
2022/05/15 09:40:42;;;;;;;24.73;5.07;;;;;;;;;;5064989;28;20053;-71
2022/05/15 09:43:33;;;;;;;20.70;5.38;;;;;;;;;;5066415;28;20515;-70
2022/05/15 09:46:25;;;;;;;22.27;5.05;;;;;;;;;;5066518;28;20052;-70
2022/05/15 09:48:51;;;;;;;21.42;5.00;;;;;;;;;;5062155;28;20060;-70
2022/05/15 09:51:25;;;;;;;22.05;5.40;;;;;;;;;;5065107;28;20239;-70
2022/05/15 09:53:52;;;;;;;18.80;4.80;;;;;;;;;;5065728;28;20119;-69
2022/05/15 09:56:21;;;;;;;20.27;4.72;;;;;;;;;;5048547;28;20495;-69
2022/05/15 09:59:08;;;;;;;19.27;5.20;;;;;;;;;;5065892;28;20045;-71
2022/05/15 10:01:34;;;;;;;22.15;4.70;;;;;;;;;;5065018;28;20064;-71
2022/05/15 10:04:01;;;;;;;18.38;4.45;;;;;;;;;;5066499;28;20079;-71
2022/05/15 10:06:29;;;;;;;19.95;4.80;;;;;;;;;;5068578;28;20075;-71
2022/05/15 10:09:09;;;;;;;22.98;4.90;;;;;;;;;;5068658;28;20060;-71
2022/05/15 10:11:37;;;;;;;23.50;5.10;;;;;;;;;;5068310;28;20059;-71
2022/05/15 10:14:04;;;;;;;18.80;4.47;;;;;;;;;;5064375;28;20122;-71
2022/05/15 10:16:33;;;;;;;22.77;4.40;;;;;;;;;;5050000;28;20100;-70
2022/05/15 10:19:08;;;;;;;23.45;5.35;;;;;;;;;;5049675;28;20163;-71
2022/05/15 10:21:42;;;;;;;19.85;5.18;;;;;;;;;;5049951;28;20041;-71
2022/05/15 10:24:15;;;;;;;18.30;4.82;;;;;;;;;;5033549;28;20048;-71
2022/05/15 10:26:44;;;;;;;17.80;4.90;;;;;;;;;;5069651;28;20045;-69
2022/05/15 10:29:23;;;;;;;19.92;4.63;;;;;;;;;;5070137;28;20519;-68
2022/05/15 10:31:52;;;;;;;23.38;5.15;;;;;;;;;;5069716;28;20344;-69
2022/05/15 10:34:23;;;;;;;15.90;4.25;;;;;;;;;;5051371;28;20075;-69
2022/05/15 10:37:08;;;;;;;19.83;4.88;;;;;;;;;;5069068;28;20155;-71
2022/05/15 10:39:34;;;;;;;24.42;4.63;;;;;;;;;;5069060;28;20100;-71
2022/05/15 10:42:33;;;;;;;22.27;4.60;;;;;;;;;;5069521;28;20044;-68
2022/05/15 10:45:12;;;;;;;20.60;4.75;;;;;;;;;;5012432;28;20395;-68
2022/05/15 10:47:52;;;;;;;22.17;4.75;;;;;;;;;;5050136;28;20056;-71
2022/05/15 10:50:24;;;;;;;16.08;4.22;;;;;;;;;;5050041;28;20219;-68
2022/05/15 10:53:03;;;;;;;17.85;5.45;;;;;;;;;;5049645;28;20196;-70
2022/05/15 10:58:20;;;;;;;22.10;5.00;;;;;;;;;;5064260;28;20139;-71
2022/05/15 11:01:06;;;;;;;21.52;5.22;;;;;;;;;;5069304;28;20140;-70
2022/05/15 11:03:35;;;;;;;19.45;4.03;;;;;;;;;;5027014;28;20092;-69
2022/05/15 11:06:01;;;;;;;20.13;5.35;;;;;;;;;;5027672;28;20053;-69
2022/05/15 11:08:27;;;;;;;;;;;;;;;;;;5029730;28;20064;-69
2022/05/15 11:11:02;;;;;;;25.52;4.93;;;;;;;;;;5029133;28;19920;-70
2022/05/15 11:13:40;;;;;;;20.75;4.78;;;;;;;;;;5028278;28;20090;-68
2022/05/15 11:16:25;;;;;;;19.83;4.75;;;;;;;;;;5028851;28;20049;-69
2022/05/15 11:19:00;;;;;;;18.90;4.63;;;;;;;;;;5028976;28;20221;-68
2022/05/15 11:21:34;;;;;;;15.52;4.07;;;;;;;;;;5029284;28;20046;-68
2022/05/15 11:24:02;;;;;;;18.92;4.50;;;;;;;;;;5027621;28;20213;-69
2022/05/15 11:26:28;;;;;;;22.42;4.65;;;;;;;;;;5029413;28;20046;-69
2022/05/15 11:28:56;;;;;;;16.65;4.78;;;;;;;;;;5028438;28;20042;-68
2022/05/15 11:31:23;;;;;;;18.20;4.60;;;;;;;;;;5028952;28;20056;-71
2022/05/15 11:33:52;;;;;;;17.33;4.40;;;;;;;;;;5023891;28;20041;-70
2022/05/15 11:36:21;;;;;;;14.15;4.00;;;;;;;;;;5009012;28;20148;-71
2022/05/15 11:38:47;;;;;;;18.60;4.20;;;;;;;;;;5009195;28;20419;-68
2022/05/15 11:41:13;;;;;;;;;;;;;;;;;;5009521;28;20120;-68
2022/05/15 11:43:57;;;;;;;18.00;4.28;;;;;;;;;;5007063;28;19983;-69
2022/05/15 11:46:43;;;;;;;14.43;4.32;;;;;;;;;;5028748;28;20045;-70
2022/05/15 11:49:15;;;;;;;17.67;4.10;;;;;;;;;;5028336;28;20869;-70
2022/05/15 11:51:42;;;;;;;16.33;4.15;;;;;;;;;;5028742;28;20060;-70
2022/05/15 11:54:10;;;;;;;22.67;4.10;;;;;;;;;;5028501;28;20048;-71
2022/05/15 11:56:52;;;;;;;18.33;4.13;;;;;;;;;;5027202;28;20049;-70
2022/05/15 11:59:18;;;;;;;16.55;4.00;;;;;;;;;;5028550;28;20084;-70
2022/05/15 12:01:44;;;;;;;;;;;;;;;;;;5029367;28;20572;-70
2022/05/15 12:04:16;;;;;;;18.90;4.03;;;;;;;;;;5067807;28;20027;-70
2022/05/15 12:07:05;;;;;;;14.20;3.97;;;;;;;;;;5052724;28;20105;-70
2022/05/15 12:09:39;;;;;;;16.10;4.13;;;;;;;;;;5028205;28;20073;-71
2022/05/15 12:12:21;;;;;;;15.23;3.88;;;;;;;;;;5048642;28;20048;-70
2022/05/15 12:15:03;;;;;;;13.70;3.50;;;;;;;;;;5030045;28;20045;-70
2022/05/15 12:17:31;;;;;;;14.20;3.63;;;;;;;;;;5048312;28;20045;-69
2022/05/15 12:20:14;;;;;;;11.88;3.47;;;;;;;;;;5047827;28;20049;-70
2022/05/15 12:22:46;;;;;;;18.40;3.55;;;;;;;;;;5067473;28;20056;-67
2022/05/15 12:25:14;;;;;;;15.95;3.70;;;;;;;;;;5067647;28;20151;-68
2022/05/15 12:27:54;;;;;;;16.67;4.22;;;;;;;;;;5067907;28;20542;-71
2022/05/15 12:30:24;;;;;;;15.60;3.97;;;;;;;;;;5067889;28;20052;-69
2022/05/15 12:32:55;;;;;;;15.75;3.72;;;;;;;;;;5048631;28;20073;-68
2022/05/15 12:35:24;;;;;;;16.77;4.22;;;;;;;;;;5067588;28;20110;-68
2022/05/15 12:37:55;;;;;;;14.43;4.07;;;;;;;;;;5067865;28;20048;-68
2022/05/15 12:40:24;;;;;;;17.77;4.25;;;;;;;;;;5067699;28;20060;-69
2022/05/15 12:42:50;;;;;;;14.90;3.58;;;;;;;;;;5067733;28;20173;-71
2022/05/15 12:45:20;;;;;;;18.23;3.70;;;;;;;;;;5052558;28;20166;-68
2022/05/15 12:48:00;;;;;;;14.38;3.65;;;;;;;;;;5047793;28;20122;-68
2022/05/15 12:50:26;;;;;;;16.73;4.22;;;;;;;;;;5047727;28;20219;-69
2022/05/15 12:52:53;;;;;;;16.73;3.72;;;;;;;;;;5047729;28;20106;-68
2022/05/15 12:55:25;;;;;;;17.13;3.75;;;;;;;;;;5047153;28;20060;-69
2022/05/15 12:57:52;;;;;;;15.57;3.60;;;;;;;;;;5058871;28;20060;-70
2022/05/15 13:00:20;;;;;;;16.70;3.55;;;;;;;;;;5066880;28;20132;-70
2022/05/15 13:02:47;;;;;;;15.70;3.70;;;;;;;;;;5067288;28;20467;-69
2022/05/15 13:05:25;;;;;;;14.95;3.65;;;;;;;;;;5067810;28;20133;-70
2022/05/15 13:08:09;;;;;;;16.05;3.55;;;;;;;;;;5048872;28;20349;-70
2022/05/15 13:10:36;;;;;;;15.05;3.53;;;;;;;;;;5067313;28;20071;-71
2022/05/15 13:13:14;;;;;;;14.65;3.75;;;;;;;;;;5066824;28;20087;-70
2022/05/15 13:15:45;;;;;;;17.05;3.88;;;;;;;;;;5067397;28;20064;-69
2022/05/15 13:18:11;;;;;;;16.10;3.92;;;;;;;;;;5047834;28;20060;-70
2022/05/15 13:20:39;;;;;;;16.60;3.70;;;;;;;;;;5047330;28;20065;-70
2022/05/15 13:23:07;;;;;;;16.98;4.28;;;;;;;;;;5046924;28;20206;-68
2022/05/15 13:25:38;;;;;;;14.60;3.45;;;;;;;;;;5047336;28;20153;-69
2022/05/15 13:28:05;;;;;;;15.90;4.07;;;;;;;;;;5060308;28;20158;-69
2022/05/15 13:30:33;;;;;;;17.42;3.70;;;;;;;;;;5055428;28;20587;-70
2022/05/15 13:33:01;;;;;;;15.02;3.85;;;;;;;;;;5029584;28;20197;-67
2022/05/15 13:35:29;;;;;;;14.20;3.65;;;;;;;;;;5047355;28;20123;-71
2022/05/15 13:37:55;;;;;;;13.07;4.07;;;;;;;;;;5067321;28;20071;-70
2022/05/15 13:43:20;;;;;;;12.05;3.53;;;;;;;;;;5070688;28;20044;-69
2022/05/15 13:45:55;;;;;;;17.27;3.75;;;;;;;;;;5069898;28;20044;-69
2022/05/15 13:48:21;;;;;;;15.55;4.05;;;;;;;;;;5070589;28;20070;-69
2022/05/15 13:50:53;;;;;;;15.98;3.63;;;;;;;;;;5052982;28;20345;-70
2022/05/15 13:53:21;;;;;;;12.20;3.47;;;;;;;;;;5070383;28;20051;-72
2022/05/15 13:55:51;;;;;;;18.80;3.92;;;;;;;;;;5069450;28;20052;-69
2022/05/15 13:58:17;;;;;;;17.48;4.25;;;;;;;;;;5070625;28;20115;-68
2022/05/15 14:01:00;;;;;;;15.57;4.00;;;;;;;;;;5070678;28;20068;-68
2022/05/15 14:03:34;;;;;;;13.95;4.07;;;;;;;;;;5069785;28;20472;-69
2022/05/15 14:06:15;;;;;;;13.25;3.80;;;;;;;;;;5041859;28;20057;-67
2022/05/15 14:08:59;;;;;;;15.13;3.85;;;;;;;;;;5050701;28;20041;-69
2022/05/15 14:11:26;;;;;;;15.85;4.03;;;;;;;;;;5050510;28;20171;-69
2022/05/15 14:13:53;;;;;;;14.35;4.25;;;;;;;;;;5050413;28;20464;-68
2022/05/15 14:16:21;;;;;;;17.10;4.57;;;;;;;;;;5050133;28;20114;-70
2022/05/15 14:18:47;;;;;;;16.23;4.68;;;;;;;;;;5050135;28;20041;-70
2022/05/15 14:21:15;;;;;;;17.17;4.65;;;;;;;;;;5049871;28;20124;-70
2022/05/15 14:23:41;;;;;;;12.70;4.15;;;;;;;;;;5050171;28;20106;-69
2022/05/15 14:26:09;;;;;;;16.35;4.18;;;;;;;;;;5050262;28;20081;-70
2022/05/15 14:28:35;;;;;;;20.75;4.97;;;;;;;;;;5049382;28;20045;-70
2022/05/15 14:31:01;;;;;;;17.25;4.55;;;;;;;;;;5054605;28;20069;-69
2022/05/15 14:33:28;;;;;;;15.55;4.78;;;;;;;;;;5069595;28;20045;-69
2022/05/15 14:35:57;;;;;;;16.70;4.97;;;;;;;;;;5052275;28;20060;-69
2022/05/15 14:38:24;;;;;;;22.75;4.90;;;;;;;;;;5069541;28;20190;-69
2022/05/15 14:40:50;;;;;;;19.17;5.15;;;;;;;;;;5064461;28;20079;-71
2022/05/15 14:43:16;;;;;;;15.93;5.20;;;;;;;;;;5066857;28;20135;-69
2022/05/15 14:45:51;;;;;;;17.58;5.18;;;;;;;;;;5069846;28;20041;-69
2022/05/15 14:48:20;;;;;;;17.10;4.90;;;;;;;;;;5069491;28;20044;-74
2022/05/15 14:50:46;;;;;;;19.52;5.32;;;;;;;;;;5069708;28;20055;-69
2022/05/15 14:53:15;;;;;;;23.52;5.88;;;;;;;;;;5049452;28;20089;-70
2022/05/15 14:58:26;;;;;;;21.23;5.40;;;;;;;;;;5049421;28;20139;-69
2022/05/15 15:00:53;;;;;;;23.35;6.28;;;;;;;;;;5049888;28;20049;-69
2022/05/15 15:03:19;;;;;;;24.05;5.50;;;;;;;;;;5050597;28;20086;-70
2022/05/15 15:05:45;;;;;;;;;;;;;;;;;;5032402;28;20417;-70
2022/05/15 15:08:22;;;;;;;22.55;5.57;;;;;;;;;;5031546;28;19921;-68
2022/05/15 15:10:49;;;;;;;17.65;5.35;;;;;;;;;;5049314;28;20047;-68